Flick Point, California
Current Conditions -  °F | °C
As of 2:55 PM on Tuesday 27 Jan 2015 (Local Time) from KTRK Reporting Station
Overcast Overcast  
Wind Chill: 35°   Ceiling: 6500
Heat Index: 39°   Visibility: 10mi
Dew Point: 32°   Wind: 6mph
Humidity: 75%   Direction: 290°WNW
Pressure: 30.25"   Gusts: NA
Location:  39.2392°N, 120.102°W
Report Text: KTRK 272255Z 29005KT 10SM BKN065 OVC080 04/00 A3025 RMK NOSPECI
Loading
Personal Weather Stations






























Interactive Weather Map New forecast layout! Learn more

10-Day Weather Forecast

Advertisements
Track Severe Weather on mobile